Time;durP1;ratioP1;P1;durP2;ratioP2;P2;SDS_P1;SDS_P2;PMS_P1;PMS_P2;Temp;Humidity;BMP_temperature;BMP_pressure;BME280_temperature;BME280_humidity;BME280_pressure;Samples;Min_cycle;Max_cycle;Signal;HPM_P1;HPM_P2
2021/06/06 00:02:13;;;;;;;14.27;12.07;;;;;;;14.80;86.72;101098.09;4979369;28;20205;-78
2021/06/06 00:04:44;;;;;;;15.37;12.47;;;;;;;14.75;86.90;101093.84;4964837;28;20196;-78
2021/06/06 00:07:10;;;;;;;12.60;11.00;;;;;;;14.69;86.70;101093.22;4985368;28;20188;-78
2021/06/06 00:09:36;;;;;;;13.77;12.33;;;;;;;14.66;87.24;101101.22;4980229;28;20259;-78
2021/06/06 00:12:05;;;;;;;15.07;12.93;;;;;;;14.63;87.63;101096.06;4969592;28;20649;-78
2021/06/06 00:14:36;;;;;;;16.37;12.97;;;;;;;14.62;88.73;101102.25;4982575;28;20577;-78
2021/06/06 00:17:04;;;;;;;16.07;13.17;;;;;;;14.58;87.86;101091.84;4981074;28;20212;-77
2021/06/06 00:19:31;;;;;;;16.50;13.30;;;;;;;14.56;88.05;101098.00;4978459;28;20564;-78
2021/06/06 00:21:58;;;;;;;14.83;12.70;;;;;;;14.46;86.75;101107.09;4978987;28;20761;-78
2021/06/06 00:24:28;;;;;;;16.63;13.93;;;;;;;14.41;88.50;101103.81;4981617;28;20216;-78
2021/06/06 00:26:54;;;;;;;16.73;12.47;;;;;;;14.38;88.64;101102.13;4983612;28;20225;-78
2021/06/06 00:29:22;;;;;;;16.00;13.10;;;;;;;14.28;88.35;101099.00;4983958;28;20197;-78
2021/06/06 00:31:49;;;;;;;16.53;13.00;;;;;;;14.15;88.87;101093.28;4981818;28;20291;-77
2021/06/06 00:34:15;;;;;;;15.30;13.70;;;;;;;14.14;89.37;101096.81;4965143;28;20201;-78
2021/06/06 00:36:42;;;;;;;16.10;13.87;;;;;;;14.10;89.79;101104.84;4960505;28;20230;-78
2021/06/06 00:39:11;;;;;;;15.40;13.20;;;;;;;14.11;89.74;101101.31;4981628;28;20211;-78
2021/06/06 00:41:42;;;;;;;15.80;14.07;;;;;;;14.06;90.10;101101.47;4965036;28;20870;-78
2021/06/06 00:44:09;;;;;;;19.53;14.27;;;;;;;13.91;90.14;101099.34;4982134;28;20212;-78
2021/06/06 00:46:39;;;;;;;16.43;14.53;;;;;;;13.84;90.59;101096.03;4965825;28;20911;-78
2021/06/06 00:49:06;;;;;;;15.97;14.30;;;;;;;13.82;91.35;101105.72;4970052;28;20708;-78
2021/06/06 00:51:40;;;;;;;18.37;14.37;;;;;;;13.75;90.97;101107.69;4978628;28;20738;-78
2021/06/06 00:54:14;;;;;;;16.53;14.50;;;;;;;13.72;92.50;101106.91;4985252;28;20206;-78
2021/06/06 00:56:44;;;;;;;18.03;13.70;;;;;;;13.63;92.41;101103.69;4982748;28;20286;-78
2021/06/06 00:59:14;;;;;;;16.90;13.53;;;;;;;13.58;92.92;101102.13;4985132;28;20720;-78
2021/06/06 01:01:41;;;;;;;16.87;13.57;;;;;;;13.51;92.37;101106.69;4982651;28;20229;-78
2021/06/06 01:04:08;;;;;;;14.63;13.03;;;;;;;13.52;92.39;101111.03;4967095;28;20215;-77
2021/06/06 01:06:38;;;;;;;14.77;12.83;;;;;;;13.48;92.64;101106.78;4970971;28;22007;-78
2021/06/06 01:09:08;;;;;;;17.63;13.70;;;;;;;13.45;93.73;101106.88;4984436;28;20219;-77
2021/06/06 01:11:40;;;;;;;16.40;13.90;;;;;;;13.47;93.58;101106.84;4963576;28;20218;-78
2021/06/06 01:14:12;;;;;;;16.23;13.27;;;;;;;13.42;94.37;101107.84;4983267;28;20219;-78
2021/06/06 01:16:44;;;;;;;16.27;13.43;;;;;;;13.41;94.30;101107.88;4983146;28;20232;-78
2021/06/06 01:19:19;;;;;;;15.20;13.60;;;;;;;13.33;94.18;101112.47;4985539;28;20214;-77
2021/06/06 01:22:05;;;;;;;16.77;13.30;;;;;;;13.26;94.05;101111.75;4966778;28;20196;-78
2021/06/06 01:24:36;;;;;;;16.90;14.53;;;;;;;13.19;95.45;101108.50;4965851;28;20498;-78
2021/06/06 01:27:06;;;;;;;17.27;13.43;;;;;;;13.25;95.78;101116.16;4982700;28;20231;-78
2021/06/06 01:29:44;;;;;;;15.40;13.20;;;;;;;13.20;94.27;101112.81;4964833;28;20330;-78
2021/06/06 01:32:16;;;;;;;16.70;13.97;;;;;;;13.14;94.15;101115.63;4985674;28;20222;-78
2021/06/06 01:34:47;;;;;;;16.13;14.33;;;;;;;13.14;95.33;101113.00;4981138;28;20206;-77
2021/06/06 01:37:21;;;;;;;17.50;14.37;;;;;;;13.13;95.97;101116.50;4986456;28;20200;-77
2021/06/06 01:39:53;;;;;;;16.27;14.40;;;;;;;13.13;96.10;101113.03;4968064;28;20219;-77
2021/06/06 01:42:24;;;;;;;20.57;15.30;;;;;;;13.05;95.23;101114.13;4982529;28;20247;-77
2021/06/06 01:44:55;;;;;;;17.47;14.33;;;;;;;12.96;95.33;101111.75;4983384;28;20272;-78
2021/06/06 01:47:27;;;;;;;16.90;14.13;;;;;;;12.98;97.64;101109.09;4984442;28;20223;-78
2021/06/06 01:49:59;;;;;;;18.07;13.80;;;;;;;12.92;97.00;101112.75;4966323;28;20220;-77
2021/06/06 01:52:30;;;;;;;15.10;13.20;;;;;;;12.92;96.91;101110.13;4980694;28;20664;-77
2021/06/06 01:54:59;;;;;;;16.80;14.70;;;;;;;12.84;96.56;101112.97;4968967;28;20563;-78
2021/06/06 01:57:28;;;;;;;17.67;15.07;;;;;;;12.81;96.61;101115.66;4980755;28;20310;-77
2021/06/06 02:00:00;;;;;;;15.70;13.80;;;;;;;12.71;96.52;101108.13;4982762;28;20208;-78
2021/06/06 02:02:31;;;;;;;18.53;14.93;;;;;;;12.71;97.59;101108.13;4964473;28;20537;-78
2021/06/06 02:04:59;;;;;;;21.53;16.33;;;;;;;12.68;97.87;101107.31;4982987;28;20225;-77
2021/06/06 02:07:29;;;;;;;16.20;14.50;;;;;;;12.67;98.28;101112.56;4981050;28;20246;-78
2021/06/06 02:10:10;;;;;;;17.40;15.07;;;;;;;12.56;97.41;101114.59;4983949;28;20274;-78
2021/06/06 02:12:41;;;;;;;18.07;15.20;;;;;;;12.47;98.61;101119.19;4964288;28;20228;-78
2021/06/06 02:15:14;;;;;;;18.27;16.10;;;;;;;12.47;98.68;101119.19;4985521;28;20232;-78
2021/06/06 02:17:50;;;;;;;18.03;15.10;;;;;;;12.50;99.33;101120.84;4964599;28;20205;-78
2021/06/06 02:20:23;;;;;;;16.97;15.17;;;;;;;12.44;98.32;101119.28;4979735;28;20264;-78
2021/06/06 02:22:52;;;;;;;18.27;16.17;;;;;;;12.40;98.64;101111.53;4980893;28;20198;-78
2021/06/06 02:25:22;;;;;;;18.83;15.60;;;;;;;12.30;98.22;101114.38;4983773;28;20213;-78
2021/06/06 02:28:02;;;;;;;20.10;16.10;;;;;;;12.25;99.23;101111.03;4983468;28;20267;-78
2021/06/06 02:30:36;;;;;;;17.80;15.13;;;;;;;12.20;98.85;101123.34;4983054;28;20300;-78
2021/06/06 02:33:09;;;;;;;21.37;15.77;;;;;;;12.14;99.09;101123.53;4983321;28;20220;-78
2021/06/06 02:35:42;;;;;;;18.87;15.50;;;;;;;12.09;99.04;101125.38;4949481;28;20267;-78
2021/06/06 02:38:14;;;;;;;17.63;14.90;;;;;;;12.06;99.37;101123.69;4988859;28;20205;-78
2021/06/06 02:40:54;;;;;;;18.60;15.53;;;;;;;12.16;100.00;101121.72;4966071;28;20651;-78
2021/06/06 02:43:32;;;;;;;18.93;15.17;;;;;;;12.11;100.00;101123.59;4956459;28;20216;-78
2021/06/06 02:46:01;;;;;;;19.37;15.60;;;;;;;12.03;99.71;101123.78;4981391;28;20717;-78
2021/06/06 02:48:32;;;;;;;19.07;14.27;;;;;;;12.02;100.00;101127.28;4967437;28;20202;-78
2021/06/06 02:51:06;;;;;;;19.83;15.13;;;;;;;12.02;100.00;101131.66;4980184;28;20201;-78
2021/06/06 02:53:36;;;;;;;17.20;14.70;;;;;;;11.90;99.81;101124.94;4971568;28;20193;-78
2021/06/06 02:56:11;;;;;;;18.47;16.10;;;;;;;12.04;100.00;101129.88;4967899;28;20649;-78
2021/06/06 02:58:44;;;;;;;18.50;14.87;;;;;;;11.98;100.00;101127.38;4966733;28;20219;-78
2021/06/06 03:01:17;;;;;;;18.77;15.40;;;;;;;12.02;100.00;101126.44;4984684;28;20593;-78
2021/06/06 03:03:46;;;;;;;17.10;14.53;;;;;;;12.02;100.00;101123.81;4964331;28;20585;-79
2021/06/06 03:06:26;;;;;;;20.87;16.87;;;;;;;11.99;100.00;101119.50;4971565;28;20252;-78
2021/06/06 03:08:53;;;;;;;19.83;16.07;;;;;;;11.97;100.00;101126.53;4980253;28;20224;-78
2021/06/06 03:11:24;;;;;;;18.40;15.50;;;;;;;11.95;100.00;101122.25;4970902;28;20556;-78
2021/06/06 03:13:55;;;;;;;19.40;15.87;;;;;;;12.00;100.00;101126.47;4982552;28;20213;-78
2021/06/06 03:16:24;;;;;;;21.07;15.97;;;;;;;12.00;100.00;101128.25;4987217;28;20680;-78
2021/06/06 03:18:56;;;;;;;20.93;16.10;;;;;;;12.06;100.00;101128.91;4983630;28;20782;-78
2021/06/06 03:21:28;;;;;;;18.23;15.40;;;;;;;12.09;100.00;101128.84;4964365;28;20371;-78
2021/06/06 03:23:58;;;;;;;21.30;17.30;;;;;;;12.06;100.00;101128.06;4966889;28;20290;-78
2021/06/06 03:26:27;;;;;;;20.00;16.13;;;;;;;12.02;100.00;101135.13;4984022;28;20269;-77
2021/06/06 03:29:01;;;;;;;19.30;16.20;;;;;;;11.98;100.00;101138.72;4980522;28;20198;-78
2021/06/06 03:31:34;;;;;;;17.60;15.73;;;;;;;12.02;100.00;101134.28;4980030;28;20209;-78
2021/06/06 03:34:06;;;;;;;18.67;16.53;;;;;;;12.06;100.00;101133.31;4967313;28;20209;-78
2021/06/06 03:36:44;;;;;;;20.20;16.20;;;;;;;12.06;100.00;101133.31;4982523;28;20974;-78
2021/06/06 03:39:17;;;;;;;18.40;16.27;;;;;;;12.03;100.00;101138.59;4972165;28;20204;-77
2021/06/06 03:41:46;;;;;;;20.77;16.70;;;;;;;12.10;100.00;101140.16;4949034;28;20220;-77
2021/06/06 03:44:12;;;;;;;21.17;16.90;;;;;;;12.16;100.00;101142.63;4986985;28;20197;-78
2021/06/06 03:46:38;;;;;;;19.20;15.47;;;;;;;12.13;100.00;101134.88;4962520;28;20577;-78
2021/06/06 03:49:07;;;;;;;18.60;15.70;;;;;;;12.20;100.00;101143.41;4987586;28;20200;-78
2021/06/06 03:51:35;;;;;;;19.97;16.57;;;;;;;12.19;100.00;101134.72;4982747;28;20225;-78
2021/06/06 03:54:03;;;;;;;18.90;16.57;;;;;;;12.26;100.00;101141.53;4981080;28;20236;-78
2021/06/06 03:56:29;;;;;;;18.97;15.93;;;;;;;12.29;100.00;101141.44;4980065;28;21388;-78
2021/06/06 03:58:58;;;;;;;19.17;15.30;;;;;;;12.31;100.00;101141.38;4969681;28;20208;-78
2021/06/06 04:01:24;;;;;;;17.03;14.40;;;;;;;12.30;100.00;101131.84;4983527;28;20205;-78
2021/06/06 04:03:50;;;;;;;19.07;16.30;;;;;;;12.42;100.00;101135.91;4967893;28;20728;-78
2021/06/06 04:06:18;;;;;;;19.23;16.57;;;;;;;12.52;100.00;101131.28;4985485;28;20213;-78
2021/06/06 04:08:47;;;;;;;18.03;16.13;;;;;;;12.70;100.00;101136.03;4962360;28;20241;-77
2021/06/06 04:11:16;;;;;;;18.30;16.07;;;;;;;12.83;100.00;101129.56;4983614;28;20592;-78
2021/06/06 04:13:48;;;;;;;18.93;15.63;;;;;;;13.00;100.00;101130.88;4965345;28;20202;-78
2021/06/06 04:16:18;;;;;;;18.10;16.20;;;;;;;13.18;100.00;101132.94;4967853;28;20621;-78
2021/06/06 04:18:45;;;;;;;21.20;16.53;;;;;;;13.33;99.47;101130.81;4963387;28;20252;-78
2021/06/06 04:21:14;;;;;;;17.63;15.50;;;;;;;13.44;97.74;101129.59;4968192;28;20242;-78
2021/06/06 04:23:40;;;;;;;21.77;17.80;;;;;;;13.61;97.25;101139.56;4962901;28;20210;-78
2021/06/06 04:26:07;;;;;;;20.27;16.73;;;;;;;13.78;97.43;101135.56;4984165;28;20589;-78
2021/06/06 04:28:38;;;;;;;19.40;16.93;;;;;;;13.94;97.21;101135.94;4964805;28;20212;-78
2021/06/06 04:31:11;;;;;;;20.00;16.33;;;;;;;14.10;95.72;101142.38;4952870;28;20691;-78
2021/06/06 04:33:39;;;;;;;18.20;16.17;;;;;;;14.27;94.69;101141.84;4978972;28;20815;-78
2021/06/06 04:36:08;;;;;;;19.13;15.67;;;;;;;14.45;92.93;101140.38;4964271;28;20257;-78
2021/06/06 04:38:36;;;;;;;16.03;13.37;;;;;;;14.65;89.13;101152.84;4980548;28;20224;-78
2021/06/06 04:41:05;;;;;;;13.60;11.87;;;;;;;14.94;85.30;101157.06;4982409;28;20203;-78
2021/06/06 04:43:32;;;;;;;14.73;11.33;;;;;;;15.17;83.33;101152.72;4978213;28;20601;-78
2021/06/06 04:45:59;;;;;;;11.77;10.60;;;;;;;15.33;82.23;101153.88;4966160;28;20516;-78
2021/06/06 04:48:30;;;;;;;12.37;10.93;;;;;;;15.54;80.66;101159.22;4961246;28;20515;-78
2021/06/06 04:51:01;;;;;;;11.63;9.87;;;;;;;15.75;77.86;101159.34;4969620;28;20210;-78
2021/06/06 04:53:33;;;;;;;11.33;9.33;;;;;;;15.90;76.60;101170.13;4966610;28;20200;-78
2021/06/06 04:56:04;;;;;;;11.67;9.43;;;;;;;16.07;76.34;101168.56;4984270;28;20246;-78
2021/06/06 04:58:32;;;;;;;10.57;9.43;;;;;;;16.24;75.43;101166.13;4984110;28;20703;-78
2021/06/06 05:01:02;;;;;;;10.57;8.90;;;;;;;16.38;75.16;101173.44;4970393;28;20285;-78
2021/06/06 05:03:29;;;;;;;10.10;8.53;;;;;;;16.46;74.86;101174.00;4986074;28;20672;-78
2021/06/06 05:05:59;;;;;;;10.87;9.47;;;;;;;16.61;73.68;101171.63;4954778;28;20223;-78
2021/06/06 05:08:26;;;;;;;13.10;9.30;;;;;;;16.74;76.55;101164.03;4968285;28;20204;-78
2021/06/06 05:10:53;;;;;;;10.87;8.63;;;;;;;16.85;74.47;101177.66;4968898;28;20209;-78
2021/06/06 05:13:23;;;;;;;9.27;8.33;;;;;;;16.98;74.40;101164.78;4985495;28;20208;-78
2021/06/06 05:15:52;;;;;;;11.40;9.20;;;;;;;17.14;74.60;101171.06;4983398;28;20238;-78
2021/06/06 05:18:22;;;;;;;9.67;8.67;;;;;;;17.29;73.34;101166.91;4966998;28;20204;-78
2021/06/06 05:20:51;;;;;;;12.77;9.53;;;;;;;17.44;73.06;101160.06;4964044;28;20261;-78
2021/06/06 05:23:25;;;;;;;9.83;8.77;;;;;;;17.53;71.83;101169.31;4984352;28;20585;-78
2021/06/06 05:25:55;;;;;;;9.87;8.87;;;;;;;17.64;71.16;101168.81;4967452;28;20598;-78
2021/06/06 05:28:24;;;;;;;10.43;8.90;;;;;;;17.70;71.30;101166.75;4990212;28;20232;-78
2021/06/06 05:30:50;;;;;;;10.13;9.03;;;;;;;17.81;69.28;101171.50;4985309;28;20204;-78
2021/06/06 05:33:16;;;;;;;10.50;9.40;;;;;;;17.92;70.50;101177.19;4986242;28;20908;-78
2021/06/06 05:35:42;;;;;;;10.93;9.10;;;;;;;18.07;68.68;101172.06;4951484;28;20258;-78
2021/06/06 05:38:11;;;;;;;10.33;8.87;;;;;;;18.18;69.91;101169.75;4966382;28;20670;-78
2021/06/06 05:40:39;;;;;;;11.37;8.93;;;;;;;18.26;68.51;101174.66;4950438;28;20228;-78
2021/06/06 05:43:06;;;;;;;11.53;9.27;;;;;;;18.39;69.06;101177.53;4984824;28;20205;-78
2021/06/06 05:45:34;;;;;;;12.67;8.67;;;;;;;18.50;68.04;101178.72;4966787;28;20580;-78
2021/06/06 05:48:02;;;;;;;11.23;9.57;;;;;;;18.65;66.97;101176.22;4986246;28;20236;-78
2021/06/06 05:50:31;;;;;;;8.93;8.00;;;;;;;18.77;66.59;101177.34;4986561;28;20203;-78
2021/06/06 05:53:29;;;;;;;9.63;8.57;;;;;;;18.93;67.71;101183.59;4957942;28;20249;-78
2021/06/06 05:55:57;;;;;;;9.90;8.50;;;;;;;18.97;65.94;101186.94;4986945;28;20284;-78
2021/06/06 05:58:23;;;;;;;9.43;8.27;;;;;;;19.09;66.06;101184.50;4981406;28;20565;-78
2021/06/06 06:00:50;;;;;;;8.83;7.93;;;;;;;19.19;66.34;101184.88;4985935;28;20269;-78
2021/06/06 06:03:16;;;;;;;9.00;7.77;;;;;;;19.33;66.44;101181.50;4965158;28;20548;-78
2021/06/06 06:05:43;;;;;;;8.33;7.53;;;;;;;19.47;66.19;101188.66;4983847;28;20721;-78
2021/06/06 06:08:15;;;;;;;8.80;7.80;;;;;;;19.57;66.25;101187.22;4983741;28;20218;-78
2021/06/06 06:10:41;;;;;;;8.53;7.47;;;;;;;19.70;66.48;101183.88;4978424;28;20764;-78
2021/06/06 06:13:09;;;;;;;7.97;7.17;;;;;;;19.77;65.63;101196.75;4965508;28;20588;-78
2021/06/06 06:15:35;;;;;;;9.67;7.63;;;;;;;19.93;65.09;101191.44;4981577;28;20228;-78
2021/06/06 06:18:01;;;;;;;10.77;8.43;;;;;;;20.05;63.60;101197.81;4983776;28;20208;-78
2021/06/06 06:20:29;;;;;;;8.63;7.77;;;;;;;20.18;64.61;101204.13;4968606;28;20209;-78
2021/06/06 06:22:55;;;;;;;8.93;7.80;;;;;;;20.24;64.75;101201.13;4987372;28;20247;-78
2021/06/06 06:25:21;;;;;;;8.97;8.07;;;;;;;20.37;62.07;101205.72;4987697;28;20229;-78
2021/06/06 06:27:47;;;;;;;8.93;7.47;;;;;;;20.49;62.18;101201.47;4983534;28;20220;-78
2021/06/06 06:30:27;;;;;;;8.47;7.67;;;;;;;20.58;63.25;101196.50;4968260;28;20205;-78
2021/06/06 06:32:54;;;;;;;9.87;7.87;;;;;;;20.65;62.40;101202.34;4984498;28;20231;-78
2021/06/06 06:35:21;;;;;;;9.17;7.10;;;;;;;20.74;61.84;101196.47;4983582;28;20340;-78
2021/06/06 06:37:47;;;;;;;8.87;6.50;;;;;;;20.88;62.00;101192.13;4983783;28;20280;-78
2021/06/06 06:40:15;;;;;;;7.20;6.50;;;;;;;20.99;62.99;101193.19;4982270;28;20213;-78
2021/06/06 06:42:41;;;;;;;7.03;6.33;;;;;;;21.03;61.36;101201.81;4983714;28;20253;-78
2021/06/06 06:45:10;;;;;;;8.07;6.60;;;;;;;21.14;60.48;101203.78;4983085;28;20224;-78
2021/06/06 06:47:38;;;;;;;6.83;6.13;;;;;;;21.30;60.72;101199.28;4984077;28;20705;-78
2021/06/06 06:50:05;;;;;;;7.23;5.80;;;;;;;21.36;60.08;101201.53;4981985;28;20259;-78
2021/06/06 06:52:36;;;;;;;6.47;5.87;;;;;;;21.38;62.39;101194.31;4982114;28;20200;-78
2021/06/06 06:55:04;;;;;;;7.47;5.97;;;;;;;21.47;59.58;101210.66;4984696;28;20253;-78
2021/06/06 06:57:30;;;;;;;6.73;5.80;;;;;;;21.63;59.08;101205.22;4983854;28;20719;-78
2021/06/06 06:59:56;;;;;;;7.03;5.70;;;;;;;21.79;57.73;101215.72;4986007;28;20205;-78
2021/06/06 07:02:22;;;;;;;6.60;5.90;;;;;;;21.91;54.47;101220.22;4984388;28;20269;-78
2021/06/06 07:04:49;;;;;;;6.23;5.33;;;;;;;22.03;56.05;101208.81;4980590;28;20206;-78
2021/06/06 07:07:15;;;;;;;5.83;5.30;;;;;;;22.17;55.62;101213.22;4969286;28;20261;-78
2021/06/06 07:09:41;;;;;;;7.27;6.03;;;;;;;22.23;55.49;101202.22;4980779;28;20473;-78
2021/06/06 07:12:08;;;;;;;5.73;5.23;;;;;;;22.21;56.79;101203.25;4984494;28;20579;-78
2021/06/06 07:14:34;;;;;;;7.70;5.33;;;;;;;22.30;55.34;101200.88;4982264;28;20193;-78
2021/06/06 07:17:00;;;;;;;5.73;5.13;;;;;;;22.51;53.27;101213.66;4982993;28;20210;-79
2021/06/06 07:19:27;;;;;;;6.33;4.73;;;;;;;22.64;54.52;101205.75;4982692;28;20204;-78
2021/06/06 07:21:54;;;;;;;5.93;5.33;;;;;;;22.65;52.60;101212.75;4984261;28;20224;-78
2021/06/06 07:24:20;;;;;;;5.97;4.60;;;;;;;22.76;53.10;101212.00;4983190;28;20227;-78
2021/06/06 07:26:49;;;;;;;6.07;5.47;;;;;;;22.87;54.95;101207.66;4979552;28;20589;-78
2021/06/06 07:29:19;;;;;;;5.43;4.93;;;;;;;22.94;51.17;101208.09;4984380;28;20205;-78
2021/06/06 07:31:48;;;;;;;5.37;4.80;;;;;;;23.00;53.66;101207.66;4983044;28;20236;-78
2021/06/06 07:34:15;;;;;;;7.83;4.50;;;;;;;23.05;51.58;101210.03;4984324;28;20215;-78
2021/06/06 07:36:41;;;;;;;5.13;4.63;;;;;;;23.14;50.02;101217.38;4964393;28;20237;-78
2021/06/06 07:39:09;;;;;;;5.10;4.70;;;;;;;23.32;52.23;101206.41;4971688;28;20204;-78
2021/06/06 07:41:35;;;;;;;5.40;4.73;;;;;;;23.50;52.13;101202.44;4979994;28;20743;-78
2021/06/06 07:44:01;;;;;;;4.90;4.37;;;;;;;23.59;51.00;101207.09;4984389;28;20213;-78
2021/06/06 07:46:27;;;;;;;5.40;4.90;;;;;;;23.61;53.22;101191.84;4965546;28;20228;-78
2021/06/06 07:48:53;;;;;;;5.37;4.87;;;;;;;23.77;53.00;101202.25;4985369;28;20207;-78
2021/06/06 07:51:22;;;;;;;5.00;4.17;;;;;;;23.73;51.84;101207.91;4948571;28;20206;-78
2021/06/06 07:53:48;;;;;;;5.40;4.50;;;;;;;23.82;52.63;101212.59;4983711;28;20430;-79
2021/06/06 07:56:15;;;;;;;4.50;4.10;;;;;;;23.85;53.26;101201.72;4981196;28;20249;-79
2021/06/06 07:58:41;;;;;;;4.00;3.70;;;;;;;23.95;47.28;101218.72;4980236;28;20393;-78
2021/06/06 08:01:09;;;;;;;5.63;4.47;;;;;;;24.07;48.97;101211.63;4966927;28;20224;-79
2021/06/06 08:03:35;;;;;;;5.15;4.45;;;;;;;24.12;53.09;101206.81;4983816;28;20197;-78
2021/06/06 08:06:03;;;;;;;4.60;4.13;;;;;;;24.08;49.52;101207.16;4984259;28;20224;-79
2021/06/06 08:08:29;;;;;;;6.70;4.13;;;;;;;24.19;50.01;101213.38;4982109;28;20303;-78
2021/06/06 08:10:57;;;;;;;4.13;3.78;;;;;;;24.25;48.12;101212.06;4981714;28;20220;-79
2021/06/06 08:13:26;;;;;;;6.53;4.10;;;;;;;24.46;46.48;101211.44;4982832;28;20204;-79
2021/06/06 08:15:53;;;;;;;4.07;3.25;;;;;;;24.60;45.81;101213.09;4965333;28;20260;-79
2021/06/06 08:18:21;;;;;;;4.68;3.50;;;;;;;24.72;46.42;101215.66;4984550;28;20244;-79
2021/06/06 08:20:49;;;;;;;3.95;3.65;;;;;;;24.91;46.62;101216.94;4984065;28;20948;-79
2021/06/06 08:23:17;;;;;;;4.90;4.10;;;;;;;24.95;45.23;101215.72;4981163;28;20681;-79
2021/06/06 08:25:43;;;;;;;5.28;3.80;;;;;;;24.89;46.28;101205.50;4985172;28;20232;-79
2021/06/06 08:28:10;;;;;;;5.80;4.35;;;;;;;24.91;43.72;101214.25;4983891;28;20749;-79
2021/06/06 08:30:40;;;;;;;4.43;3.70;;;;;;;24.98;44.70;101202.13;4990690;28;20200;-80
2021/06/06 08:33:07;;;;;;;5.00;4.13;;;;;;;24.91;46.33;101204.44;4989411;28;20234;-80
2021/06/06 08:35:34;;;;;;;4.15;3.55;;;;;;;24.86;45.45;101203.94;4973519;28;20349;-80
2021/06/06 08:38:00;;;;;;;5.55;4.22;;;;;;;24.71;45.92;101199.78;4984693;28;20201;-80
2021/06/06 08:40:30;;;;;;;3.78;3.42;;;;;;;24.52;43.50;101208.28;4991337;28;20206;-80
2021/06/06 08:42:56;;;;;;;5.72;3.50;;;;;;;24.42;43.96;101204.66;4984536;28;20665;-80
2021/06/06 08:45:33;;;;;;;5.30;3.60;;;;;;;24.70;42.85;101203.44;4987328;28;20247;-79
2021/06/06 08:48:05;;;;;;;6.07;3.20;;;;;;;24.91;42.46;101199.09;4984354;28;20280;-80
2021/06/06 08:50:37;;;;;;;3.50;3.20;;;;;;;25.31;41.42;101206.66;4987315;28;20259;-79
2021/06/06 08:53:14;;;;;;;3.28;2.97;;;;;;;25.39;41.28;101203.38;4983592;28;20256;-80
2021/06/06 08:55:57;;;;;;;3.10;2.80;;;;;;;25.41;39.21;101217.44;4984569;28;20221;-80
2021/06/06 08:58:35;;;;;;;3.47;2.60;;;;;;;25.29;39.78;101216.63;4987824;28;20205;-80
2021/06/06 09:01:06;;;;;;;3.22;2.92;;;;;;;25.36;37.99;101210.78;4970879;28;20212;-80
2021/06/06 09:03:34;;;;;;;4.40;3.10;;;;;;;25.57;41.86;101202.88;4986353;28;20208;-80
2021/06/06 09:06:03;;;;;;;3.03;2.70;;;;;;;25.69;38.57;101215.25;4984717;28;20221;-80
2021/06/06 09:08:32;;;;;;;3.00;2.75;;;;;;;25.59;37.07;101209.78;4986068;28;20225;-80
2021/06/06 09:11:02;;;;;;;3.97;2.80;;;;;;;25.72;37.67;101207.00;4982938;28;20215;-80
2021/06/06 09:13:31;;;;;;;2.83;2.58;;;;;;;25.62;38.86;101208.69;4969718;28;20216;-80
2021/06/06 09:16:11;;;;;;;4.82;2.72;;;;;;;25.35;37.16;101214.41;4979951;28;20221;-80
2021/06/06 09:18:44;;;;;;;4.80;2.40;;;;;;;25.22;37.77;101210.00;4984909;28;20208;-80
2021/06/06 09:21:13;;;;;;;3.35;2.63;;;;;;;25.50;36.92;101199.84;4982994;28;20228;-80
2021/06/06 09:23:39;;;;;;;2.80;2.60;;;;;;;25.88;35.16;101210.09;4969293;28;20209;-80
2021/06/06 09:26:08;;;;;;;3.00;2.80;;;;;;;26.04;35.76;101206.19;4982651;28;20928;-80
2021/06/06 09:28:37;;;;;;;2.80;2.60;;;;;;;26.23;36.05;101203.69;4983532;28;20703;-79
2021/06/06 09:31:05;;;;;;;2.92;2.60;;;;;;;26.37;38.44;101191.84;4982767;28;20213;-79
2021/06/06 09:33:35;;;;;;;2.97;2.78;;;;;;;26.39;36.36;101207.75;4966160;28;20202;-80
2021/06/06 09:36:06;;;;;;;2.80;2.60;;;;;;;26.39;34.60;101207.75;4985966;28;20259;-79
2021/06/06 09:38:36;;;;;;;2.50;2.30;;;;;;;26.36;34.66;101208.84;4988034;28;20205;-79
2021/06/06 09:41:14;;;;;;;3.10;2.85;;;;;;;26.27;35.46;101197.09;4981706;28;20202;-79
2021/06/06 09:43:55;;;;;;;3.42;2.70;;;;;;;26.24;35.07;101199.19;4968065;28;20201;-80
2021/06/06 09:46:21;;;;;;;2.92;2.60;;;;;;;26.19;35.24;101198.72;4985586;28;20235;-80
2021/06/06 09:48:49;;;;;;;3.85;2.70;;;;;;;26.25;36.32;101207.09;4982033;28;20708;-79
2021/06/06 09:51:26;;;;;;;4.45;3.17;;;;;;;26.03;36.19;101200.03;4991553;28;20221;-79
2021/06/06 09:53:57;;;;;;;3.45;2.60;;;;;;;26.07;35.94;101197.94;4966342;28;20256;-79
2021/06/06 09:56:26;;;;;;;3.30;3.00;;;;;;;26.34;33.70;101201.94;4981388;28;20240;-79
2021/06/06 09:58:53;;;;;;;2.38;2.17;;;;;;;26.55;35.62;101197.47;4981384;28;20229;-79
2021/06/06 10:01:26;;;;;;;2.67;2.45;;;;;;;26.56;31.91;101201.84;4976338;28;20256;-79
2021/06/06 10:03:55;;;;;;;2.13;1.92;;;;;;;26.66;31.76;101206.44;4982850;28;20248;-80
2021/06/06 10:06:29;;;;;;;3.28;1.95;;;;;;;26.85;31.90;101211.91;4983633;28;20217;-80
2021/06/06 10:09:04;;;;;;;2.00;1.77;;;;;;;26.93;30.51;101209.41;4985426;28;20228;-79
2021/06/06 10:11:36;;;;;;;2.22;2.03;;;;;;;26.80;29.67;101204.25;4984958;28;20216;-79
2021/06/06 10:14:03;;;;;;;2.10;1.85;;;;;;;26.93;32.34;101198.72;4982832;28;20231;-80
2021/06/06 10:16:35;;;;;;;3.30;2.00;;;;;;;27.04;28.91;101195.09;4983176;28;20760;-79
2021/06/06 10:19:08;;;;;;;1.90;1.80;;;;;;;26.98;29.06;101196.50;4965888;28;20256;-80
2021/06/06 10:21:37;;;;;;;3.25;2.03;;;;;;;27.04;30.43;101191.59;4977847;28;20297;-80
2021/06/06 10:24:08;;;;;;;3.97;2.15;;;;;;;26.93;30.47;101190.69;4980146;28;21043;-79
2021/06/06 10:26:38;;;;;;;2.17;1.70;;;;;;;26.91;28.27;101197.13;4987776;28;20236;-79
2021/06/06 10:29:09;;;;;;;2.75;2.00;;;;;;;26.89;30.55;101199.09;4981838;28;20221;-79
2021/06/06 10:31:38;;;;;;;2.28;2.08;;;;;;;26.94;32.81;101187.00;4981611;28;20215;-80
2021/06/06 10:34:09;;;;;;;2.78;2.40;;;;;;;26.92;31.38;101188.16;4981572;28;20205;-79
2021/06/06 10:36:37;;;;;;;2.20;1.98;;;;;;;26.93;30.29;101198.72;4979588;28;20229;-80
2021/06/06 10:39:06;;;;;;;3.03;1.95;;;;;;;26.76;29.94;101193.97;4982707;28;20194;-80
2021/06/06 10:41:36;;;;;;;2.53;2.17;;;;;;;26.88;30.19;101189.38;4961904;28;20201;-80
2021/06/06 10:44:08;;;;;;;1.90;1.80;;;;;;;27.10;31.80;101183.00;4979011;28;20217;-80
2021/06/06 10:46:40;;;;;;;1.85;1.60;;;;;;;27.11;30.58;101179.38;4982458;28;20291;-79
2021/06/06 10:49:17;;;;;;;2.10;1.85;;;;;;;27.13;30.20;101175.56;4981223;28;20660;-79
2021/06/06 10:51:51;;;;;;;3.92;2.08;;;;;;;27.28;33.05;101172.53;4979451;28;20528;-79
2021/06/06 10:54:38;;;;;;;1.88;1.70;;;;;;;27.48;30.50;101181.50;4976348;28;20494;-79
2021/06/06 10:57:08;;;;;;;1.83;1.70;;;;;;;27.44;28.90;101188.97;4979666;28;20213;-79
2021/06/06 10:59:38;;;;;;;5.50;2.50;;;;;;;27.37;28.77;101185.13;4979888;28;20216;-79
2021/06/06 11:02:09;;;;;;;1.90;1.80;;;;;;;27.35;27.84;101193.28;4949097;28;20202;-79
2021/06/06 11:04:51;;;;;;;1.77;1.67;;;;;;;27.26;28.43;101190.53;4980301;28;20212;-79
2021/06/06 11:07:36;;;;;;;1.67;1.40;;;;;;;27.42;28.35;101190.91;4980874;28;20221;-79
2021/06/06 11:10:08;;;;;;;1.88;1.60;;;;;;;27.35;27.24;101190.63;4978716;28;20220;-80
2021/06/06 11:12:36;;;;;;;2.50;2.20;;;;;;;27.09;28.21;101181.31;4977869;28;20303;-79
2021/06/06 11:15:18;;;;;;;1.83;1.73;;;;;;;27.29;29.39;101190.31;4981745;28;20610;-79
2021/06/06 11:17:44;;;;;;;1.73;1.63;;;;;;;27.15;28.28;101186.97;4978239;28;20308;-80
2021/06/06 11:24:26;;;;;;;2.13;1.80;;;;;;;27.13;29.52;101180.06;4981857;28;20208;-79
2021/06/06 11:27:02;;;;;;;1.95;1.70;;;;;;;27.15;28.08;101181.63;4985499;28;20231;-79
2021/06/06 11:29:42;;;;;;;1.60;1.50;;;;;;;27.07;29.09;101172.56;4981120;28;20205;-79
2021/06/06 11:32:17;;;;;;;1.63;1.52;;;;;;;27.19;29.46;101169.69;4977809;28;20197;-79
2021/06/06 11:34:46;;;;;;;1.95;1.40;;;;;;;27.31;28.45;101170.44;4981194;28;20225;-80